createdAt,value
2023-04-24T00:00:09.905Z,9.27
2023-04-24T00:02:41.447Z,13.18
2023-04-24T00:05:10.145Z,14.82
2023-04-24T00:07:37.968Z,13.57
2023-04-24T00:10:06.501Z,12.63
2023-04-24T00:12:34.564Z,11.55
2023-04-24T00:15:02.780Z,11.98
2023-04-24T00:17:31.857Z,15.38
2023-04-24T00:19:59.748Z,17.38
2023-04-24T00:22:28.984Z,19.17
2023-04-24T00:24:56.952Z,14.32
2023-04-24T00:27:25.323Z,15.18
2023-04-24T00:29:53.437Z,12.95
2023-04-24T00:32:21.419Z,15.18
2023-04-24T00:34:50.031Z,14.55
2023-04-24T00:37:17.903Z,15.90
2023-04-24T00:39:46.235Z,12.15
2023-04-24T00:42:14.251Z,15.02
2023-04-24T00:44:42.505Z,12.23
2023-04-24T00:47:11.864Z,13.13
2023-04-24T00:49:39.990Z,13.57
2023-04-24T00:52:09.960Z,14.00
2023-04-24T00:54:38.001Z,14.75
2023-04-24T00:57:06.767Z,18.08
2023-04-24T00:59:34.840Z,12.38
2023-04-24T01:02:02.700Z,13.27
2023-04-24T01:04:31.128Z,15.02
2023-04-24T01:06:59.147Z,13.98
2023-04-24T01:09:27.860Z,14.10
2023-04-24T01:11:56.168Z,15.35
2023-04-24T01:14:24.160Z,14.85
2023-04-24T01:16:52.052Z,14.52
2023-04-24T01:19:20.414Z,12.00
2023-04-24T01:21:48.793Z,11.63
2023-04-24T01:24:16.887Z,12.77
2023-04-24T01:26:47.334Z,13.40
2023-04-24T01:29:15.462Z,12.70
2023-04-24T01:31:45.092Z,11.27
2023-04-24T01:34:14.001Z,13.10
2023-04-24T01:36:42.878Z,12.60
2023-04-24T01:41:38.615Z,12.68
2023-04-24T01:44:06.791Z,13.80
2023-04-24T01:46:35.974Z,13.10
2023-04-24T01:49:06.009Z,12.48
2023-04-24T01:51:34.018Z,12.60
2023-04-24T01:54:01.918Z,11.90
2023-04-24T01:56:31.605Z,11.32
2023-04-24T01:59:01.173Z,12.55
2023-04-24T02:01:36.164Z,12.18
2023-04-24T02:04:05.154Z,12.63
2023-04-24T02:06:33.132Z,11.65
2023-04-24T02:09:02.988Z,15.82
2023-04-24T02:11:30.978Z,11.95
2023-04-24T02:13:59.354Z,11.25
2023-04-24T02:16:27.664Z,10.90
2023-04-24T02:18:55.958Z,14.18
2023-04-24T02:21:26.569Z,12.20
2023-04-24T02:23:54.782Z,11.52
2023-04-24T02:26:22.757Z,11.57
2023-04-24T02:28:53.254Z,11.30
2023-04-24T02:31:22.514Z,13.25
2023-04-24T02:33:50.471Z,15.35
2023-04-24T02:36:18.398Z,12.05
2023-04-24T02:38:46.738Z,13.70
2023-04-24T02:41:14.754Z,12.45
2023-04-24T02:43:44.243Z,10.63
2023-04-24T02:46:12.438Z,11.65
2023-04-24T02:48:40.420Z,14.18
2023-04-24T02:51:09.398Z,10.50
2023-04-24T02:55:22.609Z,10.95
2023-04-24T02:57:50.927Z,12.35
2023-04-24T03:00:19.178Z,9.85
2023-04-24T03:02:47.275Z,14.10
2023-04-24T03:05:15.451Z,14.98
2023-04-24T03:07:43.495Z,12.65
2023-04-24T03:10:11.467Z,12.00
2023-04-24T03:12:39.517Z,12.13
2023-04-24T03:15:08.707Z,12.18
2023-04-24T03:17:38.631Z,11.82
2023-04-24T03:20:07.515Z,21.23
2023-04-24T03:22:35.823Z,18.50
2023-04-24T03:25:09.461Z,14.38
2023-04-24T03:27:38.513Z,11.50
2023-04-24T03:30:36.007Z,12.05
2023-04-24T03:33:05.376Z,11.93
2023-04-24T03:35:37.736Z,12.32
2023-04-24T03:38:10.138Z,11.20
2023-04-24T03:41:07.918Z,15.13
2023-04-24T03:43:41.162Z,15.40
2023-04-24T03:46:10.688Z,15.93
2023-04-24T03:48:46.219Z,15.60
2023-04-24T03:51:15.796Z,11.85
2023-04-24T03:53:48.019Z,16.10
2023-04-24T03:56:19.857Z,15.85
2023-04-24T03:58:48.384Z,16.95
2023-04-24T04:01:17.339Z,16.70
2023-04-24T04:03:50.655Z,13.90
2023-04-24T04:06:22.810Z,11.18
2023-04-24T04:08:52.528Z,11.45
2023-04-24T04:11:21.063Z,12.55
2023-04-24T04:13:49.273Z,13.10
2023-04-24T04:16:20.660Z,16.98
2023-04-24T04:18:51.444Z,12.13
2023-04-24T04:21:19.479Z,12.38
2023-04-24T04:23:49.345Z,14.30
2023-04-24T04:26:22.386Z,10.80
2023-04-24T04:29:04.715Z,10.07
2023-04-24T04:31:34.528Z,9.32
2023-04-24T04:34:08.819Z,12.40
2023-04-24T04:36:38.172Z,11.13
2023-04-24T04:39:24.978Z,10.65
2023-04-24T04:42:05.427Z,10.43
2023-04-24T04:44:41.066Z,9.93
2023-04-24T04:47:12.391Z,10.38
2023-04-24T04:49:40.679Z,9.32
2023-04-24T04:52:15.037Z,12.38
2023-04-24T04:54:43.145Z,10.68
2023-04-24T04:57:11.877Z,19.30
2023-04-24T04:59:40.750Z,11.77
2023-04-24T05:02:13.772Z,13.85
2023-04-24T05:04:42.004Z,16.67
2023-04-24T05:07:10.478Z,13.48
2023-04-24T05:09:41.720Z,11.50
2023-04-24T05:12:10.924Z,12.07
2023-04-24T05:17:15.397Z,14.40
2023-04-24T05:19:44.119Z,14.10
2023-04-24T05:22:12.890Z,9.73
2023-04-24T05:24:50.904Z,11.98
2023-04-24T05:27:38.263Z,13.82
2023-04-24T05:30:13.461Z,11.00
2023-04-24T05:32:41.586Z,11.48
2023-04-24T05:35:09.929Z,14.38
2023-04-24T05:37:38.288Z,13.00
2023-04-24T05:40:07.077Z,9.70
2023-04-24T05:42:35.035Z,10.48
2023-04-24T05:45:03.203Z,10.63
2023-04-24T05:47:31.317Z,16.85
2023-04-24T05:49:59.786Z,10.68
2023-04-24T05:52:28.134Z,11.25
2023-04-24T05:54:56.860Z,12.38
2023-04-24T05:57:28.661Z,10.25
2023-04-24T06:00:02.951Z,15.60
2023-04-24T06:02:41.607Z,11.63
2023-04-24T06:05:13.326Z,10.82
2023-04-24T06:07:41.728Z,11.55
2023-04-24T06:10:11.293Z,9.65
2023-04-24T06:12:43.223Z,16.40
2023-04-24T06:15:17.137Z,10.43
2023-04-24T06:17:58.895Z,12.07
2023-04-24T06:20:27.584Z,12.43
2023-04-24T06:22:55.723Z,8.15
2023-04-24T06:25:27.942Z,10.02
2023-04-24T06:27:56.935Z,7.97
2023-04-24T06:30:24.856Z,12.50
2023-04-24T06:32:52.928Z,9.88
2023-04-24T06:35:21.107Z,7.70
2023-04-24T06:37:49.517Z,9.88
2023-04-24T06:40:19.724Z,12.32
2023-04-24T06:42:47.810Z,10.90
2023-04-24T06:45:16.354Z,10.00
2023-04-24T06:47:44.394Z,11.05
2023-04-24T06:50:12.990Z,15.27
2023-04-24T06:52:42.150Z,7.43
2023-04-24T06:55:10.330Z,10.95
2023-04-24T06:57:38.278Z,11.63
2023-04-24T07:00:07.959Z,11.13
2023-04-24T07:02:36.554Z,7.60
2023-04-24T07:07:32.823Z,10.95
2023-04-24T07:10:00.860Z,8.52
2023-04-24T07:12:28.680Z,11.10
2023-04-24T07:14:56.717Z,7.63
2023-04-24T07:17:24.645Z,8.10
2023-04-24T07:19:52.556Z,7.28
2023-04-24T07:22:20.698Z,7.78
2023-04-24T07:24:48.544Z,6.80
2023-04-24T07:27:16.565Z,6.55
2023-04-24T07:29:45.279Z,6.15
2023-04-24T07:32:13.589Z,10.13
2023-04-24T07:34:41.709Z,6.40
2023-04-24T07:37:09.742Z,8.45
2023-04-24T07:39:37.679Z,7.85
2023-04-24T07:42:05.707Z,9.95
2023-04-24T07:44:33.712Z,7.40
2023-04-24T07:47:01.756Z,7.63
2023-04-24T07:49:29.669Z,11.48
2023-04-24T07:51:57.609Z,8.10
2023-04-24T07:54:25.903Z,7.00
2023-04-24T07:56:53.903Z,5.95
2023-04-24T07:59:21.906Z,7.07
2023-04-24T08:01:49.785Z,7.32
2023-04-24T08:04:19.398Z,5.13
2023-04-24T08:06:49.233Z,5.97
2023-04-24T08:09:17.123Z,6.13
2023-04-24T08:11:45.477Z,6.47
2023-04-24T08:14:14.638Z,7.82
2023-04-24T08:16:43.212Z,7.43
2023-04-24T08:19:11.294Z,7.15
2023-04-24T08:21:39.537Z,5.05
2023-04-24T08:24:09.292Z,5.88
2023-04-24T08:26:37.396Z,5.70
2023-04-24T08:29:06.157Z,5.22
2023-04-24T08:31:34.187Z,5.45
2023-04-24T08:34:02.355Z,6.20
2023-04-24T08:39:15.555Z,5.82
2023-04-24T08:41:44.417Z,5.60
2023-04-24T08:44:14.169Z,6.25
2023-04-24T08:46:42.641Z,5.82
2023-04-24T08:49:10.998Z,6.05
2023-04-24T08:51:39.556Z,5.75
2023-04-24T08:54:08.533Z,9.52
2023-04-24T08:56:41.633Z,9.32
2023-04-24T08:59:10.373Z,4.93
2023-04-24T09:01:42.927Z,6.30
2023-04-24T09:04:12.401Z,6.45
2023-04-24T09:06:41.188Z,5.45
2023-04-24T09:09:11.106Z,5.88
2023-04-24T09:11:39.328Z,5.70
2023-04-24T09:14:08.120Z,5.03
2023-04-24T09:16:37.015Z,6.93
2023-04-24T09:19:05.071Z,6.72
2023-04-24T09:21:37.386Z,6.05
2023-04-24T09:24:08.897Z,7.32
2023-04-24T09:26:37.760Z,6.75
2023-04-24T09:29:06.224Z,5.45
2023-04-24T09:31:34.333Z,6.18
2023-04-24T09:34:09.208Z,6.55
2023-04-24T09:36:42.768Z,6.47
2023-04-24T09:39:13.636Z,7.10
2023-04-24T09:41:49.758Z,5.75
2023-04-24T09:44:24.155Z,5.85
2023-04-24T09:46:56.855Z,6.70
2023-04-24T09:49:29.991Z,5.32
2023-04-24T09:52:11.665Z,5.15
2023-04-24T09:54:39.872Z,8.05
2023-04-24T09:57:11.199Z,6.65
2023-04-24T09:59:45.698Z,6.47
2023-04-24T10:02:21.273Z,6.28
2023-04-24T10:04:57.960Z,7.07
2023-04-24T10:07:29.073Z,6.20
2023-04-24T10:09:57.629Z,8.00
2023-04-24T10:12:26.465Z,7.38
2023-04-24T10:14:55.439Z,7.70
2023-04-24T10:17:26.505Z,14.73
2023-04-24T10:19:55.176Z,6.03
2023-04-24T10:22:25.214Z,5.45
2023-04-24T10:24:53.626Z,4.93
2023-04-24T10:27:22.968Z,5.05
2023-04-24T10:29:54.448Z,5.28
2023-04-24T10:32:22.726Z,5.30
2023-04-24T10:34:50.806Z,10.50
2023-04-24T10:37:19.380Z,5.68
2023-04-24T10:39:50.096Z,4.30
2023-04-24T10:42:18.866Z,5.10
2023-04-24T10:44:50.330Z,6.88
2023-04-24T10:47:18.504Z,6.75
2023-04-24T10:49:46.809Z,5.55
2023-04-24T10:54:46.837Z,4.93
2023-04-24T10:57:20.851Z,5.45
2023-04-24T11:00:09.946Z,7.72
2023-04-24T11:02:39.770Z,6.45
2023-04-24T11:05:08.672Z,6.13
2023-04-24T11:08:14.597Z,6.38
2023-04-24T11:10:46.118Z,10.43
2023-04-24T11:13:18.643Z,5.85
2023-04-24T11:16:16.650Z,6.15
2023-04-24T11:18:51.983Z,6.07
2023-04-24T11:21:20.348Z,5.60
2023-04-24T11:23:48.721Z,5.05
2023-04-24T11:26:22.896Z,3.60
2023-04-24T11:28:51.946Z,4.97
2023-04-24T11:31:39.901Z,5.03
2023-04-24T11:34:15.511Z,5.43
2023-04-24T11:36:49.426Z,7.68
2023-04-24T11:39:17.529Z,41.03
2023-04-24T11:41:48.463Z,7.47
2023-04-24T11:44:16.718Z,5.07
2023-04-24T11:49:13.746Z,7.82
2023-04-24T11:51:51.354Z,8.18
2023-04-24T11:54:22.424Z,5.70
2023-04-24T11:56:50.924Z,6.72
2023-04-24T12:01:50.349Z,5.13
2023-04-24T12:04:20.558Z,5.38
2023-04-24T12:07:02.352Z,8.50
2023-04-24T12:09:30.529Z,5.65
2023-04-24T12:11:58.493Z,5.95
2023-04-24T12:14:26.631Z,6.07
2023-04-24T12:16:54.838Z,6.50
2023-04-24T12:19:24.029Z,6.00
2023-04-24T12:22:02.423Z,8.23
2023-04-24T12:24:31.567Z,6.65
2023-04-24T12:26:59.936Z,7.05
2023-04-24T12:29:27.852Z,5.53
2023-04-24T12:31:56.811Z,6.25
2023-04-24T12:34:27.271Z,7.63
2023-04-24T12:36:56.005Z,8.77
2023-04-24T12:39:28.022Z,5.60
2023-04-24T12:42:04.171Z,9.93
2023-04-24T12:44:34.151Z,9.30
2023-04-24T12:47:02.867Z,20.88
2023-04-24T12:49:32.697Z,9.57
2023-04-24T12:52:00.923Z,11.77
2023-04-24T12:54:34.094Z,6.43
2023-04-24T12:57:02.669Z,5.93
2023-04-24T12:59:30.842Z,7.20
2023-04-24T13:01:59.216Z,6.50
2023-04-24T13:04:27.443Z,10.75
2023-04-24T13:06:55.603Z,25.60
2023-04-24T13:09:24.886Z,17.27
2023-04-24T13:11:53.040Z,20.95
2023-04-24T13:14:21.243Z,39.30
2023-04-24T13:16:49.529Z,11.15
2023-04-24T13:19:17.755Z,11.88
2023-04-24T13:21:46.114Z,15.20
2023-04-24T13:24:14.640Z,14.90
2023-04-24T13:26:43.179Z,8.98
2023-04-24T13:29:12.007Z,7.80
2023-04-24T13:31:40.014Z,14.65
2023-04-24T13:34:08.544Z,9.65
2023-04-24T13:36:36.752Z,16.45
2023-04-24T13:39:07.149Z,16.33
2023-04-24T13:41:36.553Z,9.48
2023-04-24T13:44:05.863Z,7.45
2023-04-24T13:46:34.114Z,9.10
2023-04-24T13:49:04.839Z,8.25
2023-04-24T13:51:37.297Z,10.93
2023-04-24T13:54:05.724Z,8.63
2023-04-24T13:56:36.821Z,8.57
2023-04-24T13:59:05.058Z,18.10
2023-04-24T14:01:33.653Z,14.50
2023-04-24T14:04:02.273Z,12.82
2023-04-24T14:06:31.045Z,18.77
2023-04-24T14:08:59.645Z,13.40
2023-04-24T14:11:27.937Z,12.95
2023-04-24T14:13:59.898Z,15.65
2023-04-24T14:16:29.631Z,15.93
2023-04-24T14:18:57.925Z,14.27
2023-04-24T14:21:26.012Z,13.30
2023-04-24T14:23:54.003Z,13.75
2023-04-24T14:26:22.064Z,13.43
2023-04-24T14:28:51.099Z,22.58
2023-04-24T14:31:19.433Z,14.63
2023-04-24T14:33:47.915Z,18.40
2023-04-24T14:38:44.913Z,16.38
2023-04-24T14:41:14.866Z,8.95
2023-04-24T14:43:43.655Z,15.52
2023-04-24T14:46:12.846Z,11.30
2023-04-24T14:48:41.923Z,15.27
2023-04-24T14:51:10.346Z,14.50
2023-04-24T14:56:07.785Z,12.77
2023-04-24T14:58:36.475Z,21.40
2023-04-24T15:03:33.186Z,17.90
2023-04-24T15:06:02.440Z,14.52
2023-04-24T15:08:30.664Z,11.73
2023-04-24T15:10:59.277Z,10.65
2023-04-24T15:13:27.692Z,12.52
2023-04-24T15:15:56.189Z,17.60
2023-04-24T15:18:24.793Z,14.50
2023-04-24T15:23:21.458Z,13.38
2023-04-24T15:25:50.224Z,26.98
2023-04-24T15:28:19.467Z,21.55
2023-04-24T15:30:47.976Z,23.13
2023-04-24T15:33:16.524Z,17.20
2023-04-24T15:35:45.044Z,15.15
2023-04-24T15:38:13.313Z,18.80
2023-04-24T15:40:42.016Z,14.00
2023-04-24T15:43:10.599Z,15.65
2023-04-24T15:45:39.176Z,18.02
2023-04-24T15:50:36.032Z,12.95
2023-04-24T15:53:04.144Z,13.07
2023-04-24T15:55:33.918Z,15.07
2023-04-24T15:58:02.735Z,17.10
2023-04-24T16:00:34.682Z,14.85
2023-04-24T16:03:03.776Z,17.75
2023-04-24T16:05:32.630Z,20.65
2023-04-24T16:08:01.701Z,10.48
2023-04-24T16:10:30.508Z,11.60
2023-04-24T16:13:01.441Z,21.45
2023-04-24T16:15:31.187Z,14.63
2023-04-24T16:18:00.555Z,16.73
2023-04-24T16:20:29.956Z,12.57
2023-04-24T16:22:58.694Z,13.93
2023-04-24T16:25:30.727Z,23.50
2023-04-24T16:28:00.152Z,18.95
2023-04-24T16:30:29.492Z,11.48
2023-04-24T16:32:59.035Z,17.20
2023-04-24T16:35:28.499Z,15.52
2023-04-24T16:37:58.148Z,11.25
2023-04-24T16:40:28.421Z,25.45
2023-04-24T16:42:58.354Z,13.77
2023-04-24T16:45:28.210Z,15.15
2023-04-24T16:47:57.606Z,10.88
2023-04-24T16:50:27.128Z,15.93
2023-04-24T16:52:56.377Z,12.77
2023-04-24T16:55:26.074Z,16.33
2023-04-24T16:57:55.777Z,14.30
2023-04-24T17:00:25.312Z,12.93
2023-04-24T17:02:54.702Z,11.18
2023-04-24T17:05:24.351Z,10.82
2023-04-24T17:07:53.716Z,13.73
2023-04-24T17:10:23.260Z,12.25
2023-04-24T17:12:52.553Z,12.85
2023-04-24T17:15:22.165Z,11.40
2023-04-24T17:17:51.567Z,17.02
2023-04-24T17:20:23.220Z,15.68
2023-04-24T17:22:53.919Z,13.77
2023-04-24T17:25:23.386Z,13.32
2023-04-24T17:27:53.009Z,17.63
2023-04-24T17:30:22.606Z,14.80
2023-04-24T17:32:51.897Z,24.80
2023-04-24T17:35:22.760Z,14.20
2023-04-24T17:37:52.816Z,11.98
2023-04-24T17:40:22.502Z,11.73
2023-04-24T17:42:51.201Z,16.98
2023-04-24T17:45:19.639Z,19.67
2023-04-24T17:47:48.264Z,23.50
2023-04-24T17:50:17.040Z,23.40
2023-04-24T17:52:45.474Z,14.55
2023-04-24T17:55:14.034Z,13.57
2023-04-24T17:57:42.498Z,14.38
2023-04-24T18:00:11.663Z,13.52
2023-04-24T18:02:40.673Z,12.43
2023-04-24T18:05:09.437Z,12.98
2023-04-24T18:07:39.517Z,13.10
2023-04-24T18:10:08.709Z,12.60
2023-04-24T18:12:37.296Z,11.32
2023-04-24T18:15:14.279Z,10.52
2023-04-24T18:17:43.632Z,12.18
2023-04-24T18:22:41.929Z,10.77
2023-04-24T18:25:11.265Z,13.23
2023-04-24T18:27:40.621Z,27.35
2023-04-24T18:30:14.476Z,13.23
2023-04-24T18:32:43.694Z,11.48
2023-04-24T18:35:12.095Z,18.55
2023-04-24T18:37:41.122Z,17.08
2023-04-24T18:40:10.464Z,17.23
2023-04-24T18:42:39.520Z,13.98
2023-04-24T18:45:08.707Z,14.85
2023-04-24T18:47:37.271Z,16.63
2023-04-24T18:50:06.853Z,14.07
2023-04-24T18:52:35.571Z,14.20
2023-04-24T18:55:05.151Z,12.65
2023-04-24T18:57:34.089Z,13.15
2023-04-24T19:02:31.221Z,11.00
2023-04-24T19:07:27.723Z,5.18
2023-04-24T19:09:56.111Z,4.35
2023-04-24T19:12:24.642Z,7.15
2023-04-24T19:14:56.310Z,6.97
2023-04-24T19:17:25.826Z,8.05
2023-04-24T19:19:54.425Z,5.43
2023-04-24T19:22:22.975Z,5.72
2023-04-24T19:24:51.578Z,5.22
2023-04-24T19:27:20.037Z,5.90
2023-04-24T19:29:48.678Z,3.83
2023-04-24T19:32:17.171Z,3.90
2023-04-24T19:34:45.952Z,4.22
2023-04-24T19:37:14.548Z,5.45
2023-04-24T19:39:43.004Z,7.15
2023-04-24T19:42:11.500Z,5.78
2023-04-24T19:44:39.803Z,5.35
2023-04-24T19:47:08.710Z,5.20
2023-04-24T19:52:05.569Z,13.10
2023-04-24T19:54:34.076Z,13.93
2023-04-24T19:57:04.043Z,6.07
2023-04-24T19:59:33.998Z,3.47
2023-04-24T20:02:02.735Z,2.70
2023-04-24T20:04:31.530Z,5.22
2023-04-24T20:07:00.169Z,4.68
2023-04-24T20:09:29.868Z,16.67
2023-04-24T20:11:59.786Z,7.55
2023-04-24T20:14:28.181Z,6.47
2023-04-24T20:16:56.805Z,17.80
2023-04-24T20:19:25.198Z,17.73
2023-04-24T20:21:54.568Z,8.80
2023-04-24T20:24:23.022Z,4.55
2023-04-24T20:26:51.754Z,5.07
2023-04-24T20:29:19.994Z,3.55
2023-04-24T20:31:48.215Z,12.27
2023-04-24T20:34:16.299Z,7.80
2023-04-24T20:36:48.816Z,6.05
2023-04-24T20:39:17.787Z,6.80
2023-04-24T20:41:46.808Z,7.68
2023-04-24T20:44:15.286Z,11.18
2023-04-24T20:46:43.566Z,13.85
2023-04-24T20:49:12.136Z,11.40
2023-04-24T20:51:40.240Z,8.32
2023-04-24T20:54:08.526Z,8.60
2023-04-24T20:56:37.265Z,4.38
2023-04-24T20:59:05.382Z,14.15
2023-04-24T21:01:33.524Z,7.28
2023-04-24T21:04:01.964Z,7.82
2023-04-24T21:06:30.021Z,6.78
2023-04-24T21:08:58.094Z,7.85
2023-04-24T21:11:25.989Z,55.78
2023-04-24T21:13:54.231Z,33.33
2023-04-24T21:16:22.353Z,81.63
2023-04-24T21:18:50.284Z,36.03
2023-04-24T21:21:18.398Z,15.60
2023-04-24T21:23:46.598Z,7.50
2023-04-24T21:26:14.757Z,5.15
2023-04-24T21:28:42.940Z,4.38
2023-04-24T21:31:11.900Z,5.80
2023-04-24T21:33:39.842Z,3.40
2023-04-24T21:36:07.946Z,6.68
2023-04-24T21:38:35.837Z,5.32
2023-04-24T21:41:04.140Z,5.05
2023-04-24T21:43:43.859Z,4.57
2023-04-24T21:46:13.214Z,5.43
2023-04-24T21:48:41.105Z,4.65
2023-04-24T21:51:09.137Z,5.45
2023-04-24T21:53:37.256Z,6.10
2023-04-24T21:56:05.430Z,7.15
2023-04-24T21:58:33.506Z,7.53
2023-04-24T22:01:01.473Z,5.35
2023-04-24T22:03:30.646Z,5.45
2023-04-24T22:05:58.664Z,2.75
2023-04-24T22:08:26.680Z,3.33
2023-04-24T22:10:54.955Z,4.03
2023-04-24T22:13:24.203Z,4.55
2023-04-24T22:15:52.459Z,5.53
2023-04-24T22:18:20.709Z,5.75
2023-04-24T22:20:49.030Z,6.85
2023-04-24T22:23:18.289Z,2.75
2023-04-24T22:25:46.231Z,2.42
2023-04-24T22:28:14.051Z,3.92
2023-04-24T22:30:42.138Z,5.35
2023-04-24T22:33:10.198Z,4.22
2023-04-24T22:35:38.214Z,5.38
2023-04-24T22:38:06.058Z,4.75
2023-04-24T22:40:35.292Z,4.85
2023-04-24T22:43:03.917Z,3.50
2023-04-24T22:45:34.600Z,4.18
2023-04-24T22:48:02.939Z,2.53
2023-04-24T22:50:31.251Z,4.32
2023-04-24T22:52:59.083Z,3.90
2023-04-24T22:55:27.125Z,3.05
2023-04-24T22:57:57.692Z,3.85
2023-04-24T23:00:25.755Z,5.00
2023-04-24T23:02:53.808Z,4.93
2023-04-24T23:05:22.629Z,4.28
2023-04-24T23:07:50.628Z,3.47
2023-04-24T23:10:18.591Z,4.20
2023-04-24T23:12:46.386Z,3.08
2023-04-24T23:15:14.351Z,3.15
2023-04-24T23:17:42.433Z,3.90
2023-04-24T23:20:14.522Z,3.03
2023-04-24T23:22:42.760Z,2.65
2023-04-24T23:25:11.168Z,3.28
2023-04-24T23:27:39.838Z,3.85
2023-04-24T23:30:08.477Z,3.15
2023-04-24T23:32:36.504Z,2.97
2023-04-24T23:35:05.062Z,2.75
2023-04-24T23:37:33.016Z,4.50
2023-04-24T23:40:01.089Z,3.55
2023-04-24T23:42:29.145Z,3.08
2023-04-24T23:44:56.917Z,4.85
2023-04-24T23:47:24.774Z,3.05
2023-04-24T23:49:52.862Z,3.85
2023-04-24T23:52:20.730Z,4.45
2023-04-24T23:54:48.714Z,5.10
2023-04-24T23:57:16.550Z,4.45
2023-04-24T23:59:44.433Z,3.70
